createdAt,value
2019-01-15T00:01:09.406Z,1.00
2019-01-15T00:03:56.863Z,0.80
2019-01-15T00:06:53.965Z,1.00
2019-01-15T00:09:41.361Z,0.97
2019-01-15T00:12:34.741Z,0.90
2019-01-15T00:15:22.198Z,0.90
2019-01-15T00:18:16.859Z,0.73
2019-01-15T00:21:03.967Z,0.90
2019-01-15T00:23:58.245Z,0.97
2019-01-15T00:26:47.045Z,0.93
2019-01-15T00:29:41.037Z,0.70
2019-01-15T00:57:37.185Z,0.70
2019-01-15T01:00:24.584Z,0.50
2019-01-15T01:03:18.363Z,1.07
2019-01-15T01:06:05.420Z,0.90
2019-01-15T01:09:00.233Z,1.00
2019-01-15T01:11:47.583Z,0.80
2019-01-15T01:14:42.043Z,0.70
2019-01-15T01:17:29.283Z,0.60
2019-01-15T01:20:31.357Z,0.80
2019-01-15T01:23:20.059Z,0.77
2019-01-15T01:26:14.384Z,0.90
2019-01-15T01:29:01.322Z,0.70
2019-01-15T01:31:55.006Z,0.83
2019-01-15T01:34:42.446Z,0.60
2019-01-15T01:37:39.378Z,0.77
2019-01-15T01:40:26.899Z,0.60
2019-01-15T01:43:21.081Z,0.70
2019-01-15T01:46:08.387Z,0.60
2019-01-15T01:49:03.688Z,0.70
2019-01-15T01:51:52.311Z,0.60
2019-01-15T01:54:48.141Z,0.87
2019-01-15T01:57:58.209Z,0.67
2019-01-15T02:00:52.901Z,0.50
2019-01-15T02:03:40.399Z,0.63
2019-01-15T02:06:36.355Z,0.70
2019-01-15T02:09:23.744Z,0.50
2019-01-15T02:12:17.662Z,0.90
2019-01-15T02:15:06.769Z,0.60
2019-01-15T02:18:01.074Z,0.57
2019-01-15T02:20:48.687Z,0.50
2019-01-15T02:23:42.246Z,0.80
2019-01-15T02:26:29.720Z,0.50
2019-01-15T02:29:23.550Z,0.70
2019-01-15T02:32:10.731Z,0.60
2019-01-15T02:35:05.020Z,0.77
2019-01-15T02:37:52.088Z,0.60
2019-01-15T02:40:46.019Z,0.80
2019-01-15T02:43:33.063Z,0.60
2019-01-15T02:46:27.429Z,0.70
2019-01-15T02:49:14.864Z,0.67
2019-01-15T02:52:09.265Z,0.63
2019-01-15T02:54:56.288Z,0.70
2019-01-15T02:57:50.507Z,0.80
2019-01-15T03:00:47.044Z,0.57
2019-01-15T03:03:40.721Z,0.37
2019-01-15T03:06:29.307Z,0.87
2019-01-15T03:09:23.559Z,0.80
2019-01-15T03:12:10.770Z,0.60
2019-01-15T03:15:04.517Z,0.60
2019-01-15T03:17:51.716Z,0.40
2019-01-15T03:20:45.604Z,0.73
2019-01-15T03:23:33.116Z,0.60
2019-01-15T03:26:26.774Z,0.40
2019-01-15T03:29:14.134Z,0.77
2019-01-15T03:32:07.667Z,0.60
2019-01-15T03:34:54.950Z,0.77
2019-01-15T03:37:48.975Z,0.63
2019-01-15T03:40:36.096Z,0.80
2019-01-15T03:43:30.799Z,0.87
2019-01-15T03:46:17.680Z,0.43
2019-01-15T03:49:13.489Z,0.70
2019-01-15T03:52:00.860Z,0.53
2019-01-15T03:54:55.500Z,0.80
2019-01-15T03:57:42.665Z,0.60
2019-01-15T04:00:43.378Z,0.47
2019-01-15T04:03:37.130Z,0.50
2019-01-15T04:06:31.312Z,0.60
2019-01-15T04:09:18.408Z,0.60
2019-01-15T04:12:11.845Z,0.50
2019-01-15T04:14:59.074Z,0.60
2019-01-15T04:17:52.754Z,0.70
2019-01-15T04:20:40.077Z,0.57
2019-01-15T04:23:34.716Z,0.70
2019-01-15T04:26:22.272Z,0.70
2019-01-15T04:29:16.892Z,0.50
2019-01-15T04:32:04.418Z,0.77
2019-01-15T04:34:58.620Z,0.70
2019-01-15T04:37:46.002Z,0.80
2019-01-15T04:40:41.418Z,0.77
2019-01-15T04:43:28.968Z,0.73
2019-01-15T04:46:23.077Z,0.83
2019-01-15T04:49:13.291Z,0.60
2019-01-15T04:52:06.801Z,0.90
2019-01-15T04:54:54.203Z,0.60
2019-01-15T04:57:48.019Z,0.70
2019-01-15T05:00:41.857Z,0.60
2019-01-15T05:03:42.875Z,0.80
2019-01-15T05:06:37.496Z,0.70
2019-01-15T05:09:34.455Z,0.83
2019-01-15T05:12:21.869Z,0.90
2019-01-15T05:15:16.839Z,0.90
2019-01-15T05:18:03.981Z,0.53
2019-01-15T05:20:57.168Z,0.77
2019-01-15T05:23:44.211Z,1.00
2019-01-15T05:26:39.930Z,0.90
2019-01-15T05:29:27.467Z,0.90
2019-01-15T05:32:21.081Z,1.27
2019-01-15T05:35:08.498Z,0.90
2019-01-15T05:38:03.314Z,0.83
2019-01-15T05:40:50.552Z,0.80
2019-01-15T05:43:44.809Z,1.40
2019-01-15T05:46:32.369Z,0.63
2019-01-15T05:49:26.207Z,0.60
2019-01-15T05:52:13.645Z,1.00
2019-01-15T05:55:07.299Z,1.13
2019-01-15T05:57:54.661Z,1.00
2019-01-15T06:00:55.117Z,0.97
2019-01-15T06:03:52.103Z,0.80
2019-01-15T06:06:46.011Z,0.90
2019-01-15T06:09:39.564Z,1.00
2019-01-15T06:12:33.841Z,0.80
2019-01-15T06:15:20.891Z,0.80
2019-01-15T06:18:14.829Z,0.60
2019-01-15T06:21:02.036Z,0.70
2019-01-15T06:23:55.963Z,0.50
2019-01-15T06:26:43.137Z,0.70
2019-01-15T06:29:37.865Z,0.60
2019-01-15T06:32:25.195Z,0.70
2019-01-15T06:35:19.615Z,0.70
2019-01-15T06:38:07.193Z,0.40
2019-01-15T06:41:01.782Z,0.67
2019-01-15T06:43:50.115Z,0.77
2019-01-15T06:46:44.900Z,0.60
2019-01-15T06:49:32.253Z,0.20
2019-01-15T06:52:26.157Z,0.37
2019-01-15T06:55:14.679Z,0.70
2019-01-15T06:58:08.551Z,0.40
2019-01-15T07:01:02.667Z,0.60
2019-01-15T07:04:04.648Z,0.40
2019-01-15T07:06:52.057Z,0.70
2019-01-15T07:09:46.273Z,0.47
2019-01-15T07:12:41.163Z,0.67
2019-01-15T07:15:35.223Z,0.50
2019-01-15T07:18:22.121Z,0.70
2019-01-15T07:21:16.523Z,0.50
2019-01-15T07:24:03.967Z,0.33
2019-01-15T07:27:00.709Z,0.50
2019-01-15T07:29:47.725Z,0.50
2019-01-15T07:32:41.459Z,0.30
2019-01-15T07:35:28.487Z,0.40
2019-01-15T07:38:22.990Z,0.50
2019-01-15T07:41:09.975Z,0.40
2019-01-15T07:44:04.613Z,0.40
2019-01-15T07:46:52.074Z,0.60
2019-01-15T07:49:46.501Z,0.63
2019-01-15T07:52:33.862Z,0.30
2019-01-15T07:55:28.479Z,0.67
2019-01-15T07:58:15.659Z,0.40
2019-01-15T08:01:12.873Z,0.43
2019-01-15T08:04:06.864Z,0.70
2019-01-15T08:07:08.243Z,0.37
2019-01-15T08:09:55.544Z,0.30
2019-01-15T08:12:49.816Z,0.30
2019-01-15T08:15:43.656Z,0.43
2019-01-15T08:18:37.208Z,0.40
2019-01-15T08:21:24.350Z,0.30
2019-01-15T08:24:18.118Z,0.37
2019-01-15T08:27:05.344Z,0.40
2019-01-15T08:29:59.248Z,0.50
2019-01-15T08:32:46.705Z,0.40
2019-01-15T08:35:41.258Z,0.30
2019-01-15T08:38:28.662Z,0.40
2019-01-15T08:41:22.964Z,0.30
2019-01-15T08:44:19.032Z,0.30
2019-01-15T08:47:07.902Z,0.50
2019-01-15T08:49:55.258Z,0.40
2019-01-15T08:52:49.651Z,0.30
2019-01-15T08:55:37.116Z,0.47
2019-01-15T08:58:31.190Z,0.40
2019-01-15T09:01:21.753Z,0.20
2019-01-15T09:04:22.380Z,0.47
2019-01-15T09:07:09.408Z,0.50
2019-01-15T09:10:03.506Z,0.30
2019-01-15T09:12:51.030Z,0.50
2019-01-15T09:15:44.814Z,0.60
2019-01-15T09:18:40.438Z,0.50
2019-01-15T09:21:34.257Z,0.67
2019-01-15T09:24:21.218Z,0.40
2019-01-15T09:27:15.984Z,0.57
2019-01-15T09:30:04.258Z,0.50
2019-01-15T09:32:58.918Z,0.50
2019-01-15T09:35:46.282Z,0.50
2019-01-15T09:38:40.753Z,0.40
2019-01-15T09:41:27.998Z,0.50
2019-01-15T09:44:21.974Z,0.30
2019-01-15T09:47:09.119Z,0.43
2019-01-15T09:50:05.725Z,0.50
2019-01-15T09:52:53.233Z,0.60
2019-01-15T09:55:46.938Z,0.50
2019-01-15T09:58:34.403Z,0.70
2019-01-15T10:01:31.317Z,0.30
2019-01-15T10:04:25.687Z,0.50
2019-01-15T10:07:20.118Z,0.60
2019-01-15T10:10:09.087Z,0.50
2019-01-15T10:13:03.174Z,0.50
2019-01-15T10:15:50.118Z,0.50
2019-01-15T10:18:44.404Z,0.40
2019-01-15T10:21:39.824Z,0.27
2019-01-15T10:24:36.985Z,0.30
2019-01-15T10:27:24.412Z,0.33
2019-01-15T10:30:30.609Z,0.50
2019-01-15T10:33:22.203Z,0.47
2019-01-15T10:36:15.508Z,0.50
2019-01-15T10:39:04.230Z,0.53
2019-01-15T10:41:58.834Z,0.53
2019-01-15T10:44:48.814Z,0.50
2019-01-15T10:47:42.018Z,0.33
2019-01-15T10:50:29.286Z,0.33
2019-01-15T10:53:23.523Z,0.30
2019-01-15T10:56:11.238Z,0.90
2019-01-15T10:59:06.326Z,0.60
2019-01-15T11:01:53.443Z,0.40
2019-01-15T11:04:53.595Z,0.40
2019-01-15T11:07:48.105Z,0.40
2019-01-15T11:10:42.899Z,0.40
2019-01-15T11:13:30.487Z,0.30
2019-01-15T11:16:24.569Z,0.50
2019-01-15T11:19:13.637Z,0.60
2019-01-15T11:22:15.069Z,0.30
2019-01-15T11:25:02.386Z,0.43
2019-01-15T11:27:58.527Z,0.57
2019-01-15T11:30:46.011Z,0.53
2019-01-15T11:33:40.439Z,0.63
2019-01-15T11:36:30.693Z,0.40
2019-01-15T11:39:24.683Z,0.50
2019-01-15T11:42:12.075Z,0.67
2019-01-15T11:45:07.889Z,0.50
2019-01-15T11:47:55.535Z,0.30
2019-01-15T11:50:50.302Z,0.33
2019-01-15T11:53:37.452Z,0.40
2019-01-15T11:56:30.807Z,0.30
2019-01-15T11:59:18.227Z,0.40
2019-01-15T12:02:22.370Z,0.30
2019-01-15T12:05:40.293Z,0.50
2019-01-15T12:08:38.882Z,0.33
2019-01-15T12:11:33.676Z,0.37
2019-01-15T12:14:46.089Z,0.63
2019-01-15T12:17:51.250Z,0.60
2019-01-15T12:20:49.202Z,0.50
2019-01-15T12:23:51.284Z,0.40
2019-01-15T12:27:02.899Z,0.37
2019-01-15T12:29:54.594Z,0.37
2019-01-15T12:32:50.790Z,0.33
2019-01-15T12:35:39.492Z,0.40
2019-01-15T12:38:42.265Z,0.43
2019-01-15T12:41:45.055Z,0.60
2019-01-15T12:44:40.318Z,0.50
2019-01-15T12:47:32.434Z,0.30
2019-01-15T12:50:30.672Z,0.57
2019-01-15T12:53:22.164Z,0.50
2019-01-15T12:56:27.443Z,0.43
2019-01-15T12:59:19.088Z,0.50
2019-01-15T13:02:14.176Z,0.40
2019-01-15T13:05:03.376Z,0.40
2019-01-15T13:08:22.346Z,0.33
2019-01-15T13:11:11.530Z,0.30
2019-01-15T13:14:09.682Z,0.60
2019-01-15T13:16:58.346Z,0.50
2019-01-15T13:19:59.837Z,0.60
2019-01-15T13:22:57.908Z,0.40
2019-01-15T13:26:15.309Z,0.20
2019-01-15T13:29:20.538Z,0.30
2019-01-15T13:32:18.946Z,0.40
2019-01-15T13:35:09.136Z,0.20
2019-01-15T13:38:06.876Z,0.40
2019-01-15T13:41:01.591Z,0.40
2019-01-15T13:44:02.999Z,0.60
2019-01-15T13:47:07.870Z,0.37
2019-01-15T13:50:06.300Z,0.23
2019-01-15T13:53:09.876Z,0.33
2019-01-15T13:59:18.011Z,0.20
2019-01-15T14:02:15.945Z,0.40
2019-01-15T14:05:18.039Z,0.40
2019-01-15T14:08:30.218Z,0.20
2019-01-15T14:11:49.129Z,0.33
2019-01-15T14:14:45.086Z,0.30
2019-01-15T14:17:56.631Z,0.30
2019-01-15T14:21:00.176Z,0.53
2019-01-15T14:23:58.426Z,0.30
2019-01-15T14:26:53.985Z,0.23
2019-01-15T14:29:52.409Z,0.30
2019-01-15T14:32:49.992Z,0.40
2019-01-15T14:35:45.994Z,0.30
2019-01-15T14:38:51.581Z,0.20
2019-01-15T14:41:54.941Z,0.20
2019-01-15T14:44:53.111Z,0.20
2019-01-15T14:47:48.840Z,0.40
2019-01-15T14:50:46.893Z,0.30
2019-01-15T14:53:45.334Z,0.40
2019-01-15T14:56:40.502Z,0.40
2019-01-15T14:59:46.411Z,0.20
2019-01-15T15:02:35.492Z,0.30
2019-01-15T15:05:31.712Z,0.67
2019-01-15T15:08:20.424Z,0.40
2019-01-15T15:11:23.046Z,0.50
2019-01-15T15:14:16.571Z,0.30
2019-01-15T15:17:11.967Z,0.50
2019-01-15T15:20:16.440Z,0.40
2019-01-15T15:23:18.353Z,0.30
2019-01-15T15:26:07.277Z,0.30
2019-01-15T15:29:27.082Z,0.40
2019-01-15T15:32:18.889Z,0.50
2019-01-15T15:35:25.292Z,0.37
2019-01-15T15:38:16.608Z,0.50
2019-01-15T15:41:27.137Z,0.33
2019-01-15T15:44:31.049Z,0.40
2019-01-15T15:47:42.288Z,0.53
2019-01-15T15:50:31.347Z,0.40
2019-01-15T15:53:42.665Z,0.37
2019-01-15T15:56:31.698Z,0.33
2019-01-15T15:59:36.927Z,0.60
2019-01-15T16:02:25.843Z,0.40
2019-01-15T16:05:24.088Z,0.50
2019-01-15T16:08:13.069Z,0.57
2019-01-15T16:11:11.007Z,0.53
2019-01-15T16:14:12.216Z,0.40
2019-01-15T16:17:07.443Z,0.40
2019-01-15T16:19:59.330Z,0.50
2019-01-15T16:23:12.778Z,0.53
2019-01-15T16:26:04.160Z,0.40
2019-01-15T16:29:17.112Z,0.30
2019-01-15T16:32:19.320Z,0.93
2019-01-15T16:35:20.546Z,0.90
2019-01-15T16:38:16.807Z,0.53
2019-01-15T16:41:14.948Z,0.30
2019-01-15T16:44:13.607Z,0.40
2019-01-15T16:47:24.475Z,0.30
2019-01-15T16:50:20.885Z,0.40
2019-01-15T16:53:22.503Z,0.53
2019-01-15T16:56:11.300Z,0.57
2019-01-15T16:59:23.228Z,0.60
2019-01-15T17:02:14.832Z,0.47
2019-01-15T17:05:11.956Z,0.63
2019-01-15T17:08:03.000Z,0.30
2019-01-15T17:11:20.199Z,0.50
2019-01-15T17:14:18.086Z,0.50
2019-01-15T17:17:26.811Z,0.63
2019-01-15T17:20:34.318Z,0.40
2019-01-15T17:23:46.345Z,0.53
2019-01-15T17:26:41.097Z,0.40
2019-01-15T17:29:36.008Z,0.60
2019-01-15T17:32:24.809Z,0.27
2019-01-15T17:35:34.100Z,0.30
2019-01-15T17:38:23.095Z,0.40
2019-01-15T17:41:24.825Z,0.57
2019-01-15T17:44:28.517Z,0.60
2019-01-15T17:47:23.705Z,0.50
2019-01-15T17:50:29.967Z,0.60
2019-01-15T17:53:27.889Z,0.47
2019-01-15T17:56:35.109Z,0.37
2019-01-15T17:59:30.311Z,0.33
2019-01-15T18:02:22.028Z,0.60
2019-01-15T18:05:20.381Z,0.50
2019-01-15T18:08:15.384Z,0.50
2019-01-15T18:11:29.249Z,0.60
2019-01-15T18:14:36.853Z,0.80
2019-01-15T18:17:32.351Z,0.73
2019-01-15T18:20:23.590Z,0.63
2019-01-15T18:23:33.975Z,0.77
2019-01-15T18:26:28.605Z,0.70
2019-01-15T18:29:24.171Z,0.70
2019-01-15T18:32:28.909Z,0.70
2019-01-15T18:35:30.750Z,0.77
2019-01-15T18:38:25.821Z,0.63
2019-01-15T18:41:24.297Z,0.70
2019-01-15T18:44:18.873Z,0.97
2019-01-15T18:47:14.907Z,0.87
2019-01-15T18:50:18.636Z,0.83
2019-01-15T18:56:49.095Z,0.77
2019-01-15T18:59:46.668Z,0.97
2019-01-15T19:02:57.607Z,0.83
2019-01-15T19:05:46.491Z,1.10
2019-01-15T19:08:58.368Z,0.63
2019-01-15T19:12:03.175Z,0.90
2019-01-15T19:15:20.770Z,1.00
2019-01-15T19:18:34.710Z,0.90
2019-01-15T19:21:33.315Z,1.20
2019-01-15T19:24:24.647Z,1.00
2019-01-15T19:27:26.080Z,0.90
2019-01-15T19:30:18.150Z,0.77
2019-01-15T19:33:29.850Z,1.10
2019-01-15T19:36:18.546Z,0.90
2019-01-15T19:39:27.047Z,1.10
2019-01-15T19:42:24.616Z,0.80
2019-01-15T19:45:25.522Z,1.00
2019-01-15T19:48:17.134Z,0.67
2019-01-15T19:51:29.578Z,1.10
2019-01-15T19:54:23.888Z,0.77
2019-01-15T19:57:37.728Z,1.00
2019-01-15T20:00:25.980Z,0.93
2019-01-15T20:03:25.272Z,0.90
2019-01-15T20:06:14.156Z,0.90
2019-01-15T20:09:15.440Z,0.90
2019-01-15T20:12:16.582Z,0.80
2019-01-15T20:15:36.910Z,1.27
2019-01-15T20:18:48.216Z,1.00
2019-01-15T20:21:44.183Z,0.73
2019-01-15T20:24:38.438Z,0.70
2019-01-15T20:27:40.084Z,1.00
2019-01-15T20:30:40.843Z,1.17
2019-01-15T20:33:42.073Z,0.90
2019-01-15T20:36:39.588Z,0.67
2019-01-15T20:39:35.154Z,1.07
2019-01-15T20:42:36.648Z,0.73
2019-01-15T20:45:31.784Z,1.00
2019-01-15T20:48:35.455Z,0.80
2019-01-15T20:51:46.869Z,1.23
2019-01-15T20:54:38.170Z,0.80
2019-01-15T20:57:39.370Z,0.70
2019-01-15T21:00:44.124Z,1.00
2019-01-15T21:03:58.086Z,0.80
2019-01-15T21:07:02.794Z,0.73
2019-01-15T21:10:31.689Z,0.83
2019-01-15T21:13:23.656Z,1.10
2019-01-15T21:16:32.334Z,0.67
2019-01-15T21:19:23.538Z,0.90
2019-01-15T21:22:21.413Z,1.07
2019-01-15T21:25:19.270Z,1.00
2019-01-15T21:28:14.755Z,0.90
2019-01-15T21:31:18.260Z,0.93
2019-01-15T21:34:13.250Z,1.10
2019-01-15T21:37:11.215Z,1.10
2019-01-15T21:40:14.126Z,0.90
2019-01-15T21:43:15.250Z,1.10
2019-01-15T21:46:13.726Z,1.07
2019-01-15T21:49:18.795Z,1.10
2019-01-15T21:52:30.735Z,1.03
2019-01-15T21:55:19.348Z,0.90
2019-01-15T21:58:15.438Z,0.90
2019-01-15T22:01:10.446Z,1.17
2019-01-15T22:04:05.872Z,1.07
2019-01-15T22:07:00.531Z,0.83
2019-01-15T22:09:56.612Z,1.03
2019-01-15T22:12:51.669Z,1.10
2019-01-15T22:15:53.604Z,0.80
2019-01-15T22:18:42.593Z,1.00
2019-01-15T22:21:49.580Z,0.93
2019-01-15T22:24:54.678Z,1.03
2019-01-15T22:27:49.961Z,1.00
2019-01-15T22:30:45.024Z,1.00
2019-01-15T22:33:59.888Z,0.90
2019-01-15T22:36:48.638Z,1.20
2019-01-15T22:40:05.708Z,0.73
2019-01-15T22:43:04.056Z,1.03
2019-01-15T22:46:16.121Z,1.17
2019-01-15T22:49:11.066Z,0.80
2019-01-15T22:52:22.291Z,0.67
2019-01-15T22:55:26.464Z,1.03
2019-01-15T22:58:22.141Z,1.00
2019-01-15T23:01:25.091Z,1.00
2019-01-15T23:04:29.603Z,0.90
2019-01-15T23:07:27.434Z,0.87
2019-01-15T23:10:39.214Z,1.00
2019-01-15T23:13:28.140Z,1.10
2019-01-15T23:16:24.063Z,1.03
2019-01-15T23:19:35.923Z,0.93
2019-01-15T23:22:48.553Z,0.80
2019-01-15T23:25:39.958Z,1.10
2019-01-15T23:28:44.843Z,0.63
2019-01-15T23:31:45.932Z,0.63
2019-01-15T23:34:57.073Z,0.90
2019-01-15T23:37:45.766Z,0.83
2019-01-15T23:40:52.198Z,0.70
2019-01-15T23:43:43.581Z,0.90
2019-01-15T23:47:04.674Z,0.80
2019-01-15T23:49:53.529Z,1.03
2019-01-15T23:52:49.391Z,1.00
2019-01-15T23:55:40.291Z,1.03
2019-01-15T23:58:35.927Z,1.30
